createdAt,value
2019-03-15T00:01:12.764Z,98929.70
2019-03-15T00:03:39.824Z,98935.88
2019-03-15T00:06:06.899Z,98931.38
2019-03-15T00:08:33.963Z,98940.72
2019-03-15T00:11:01.017Z,98936.86
2019-03-15T00:13:28.100Z,98940.78
2019-03-15T00:15:55.176Z,98937.64
2019-03-15T00:18:22.276Z,98940.17
2019-03-15T00:20:49.375Z,98941.45
2019-03-15T00:23:16.430Z,98952.00
2019-03-15T00:25:43.507Z,98946.48
2019-03-15T00:28:10.557Z,98948.41
2019-03-15T00:30:37.608Z,98948.86
2019-03-15T00:33:04.675Z,98955.05
2019-03-15T00:35:31.726Z,98945.97
2019-03-15T00:37:58.783Z,98952.87
2019-03-15T00:40:25.846Z,98948.52
2019-03-15T00:42:52.902Z,98955.17
2019-03-15T00:45:19.983Z,98948.38
2019-03-15T00:47:47.054Z,98950.23
2019-03-15T00:50:14.109Z,98953.36
2019-03-15T00:52:41.173Z,98944.16
2019-03-15T00:55:08.229Z,98941.45
2019-03-15T00:57:35.302Z,98947.96
2019-03-15T01:00:02.886Z,98947.90
2019-03-15T01:02:29.953Z,98944.34
2019-03-15T01:04:57.003Z,98948.67
2019-03-15T01:07:24.074Z,98954.27
2019-03-15T01:09:51.156Z,98948.95
2019-03-15T01:12:18.207Z,98945.03
2019-03-15T01:14:45.263Z,98950.80
2019-03-15T01:17:12.325Z,98949.37
2019-03-15T01:19:39.436Z,98957.59
2019-03-15T01:22:06.498Z,98952.53
2019-03-15T01:24:33.568Z,98953.84
2019-03-15T01:27:00.687Z,98955.94
2019-03-15T01:29:27.763Z,98960.20
2019-03-15T01:31:54.822Z,98958.84
2019-03-15T01:34:21.885Z,98959.23
2019-03-15T01:36:48.941Z,98963.22
2019-03-15T01:39:16.001Z,98961.17
2019-03-15T01:41:43.093Z,98959.92
2019-03-15T01:44:10.153Z,98956.85
2019-03-15T01:46:37.223Z,98946.48
2019-03-15T01:49:04.299Z,98951.63
2019-03-15T01:51:31.362Z,98951.23
2019-03-15T01:53:58.430Z,98953.53
2019-03-15T01:56:25.496Z,98954.94
2019-03-15T01:58:52.557Z,98956.30
2019-03-15T02:01:19.624Z,98961.13
2019-03-15T02:03:46.688Z,98963.77
2019-03-15T02:06:13.763Z,98967.30
2019-03-15T02:08:40.825Z,98965.53
2019-03-15T02:11:07.887Z,98972.97
2019-03-15T02:13:34.988Z,98967.93
2019-03-15T02:16:02.059Z,98973.66
2019-03-15T02:18:29.145Z,98971.66
2019-03-15T02:20:56.228Z,98973.18
2019-03-15T02:23:23.615Z,98970.27
2019-03-15T02:25:50.783Z,98972.05
2019-03-15T02:28:17.844Z,98966.41
2019-03-15T02:30:44.928Z,98967.20
2019-03-15T02:33:11.976Z,98968.14
2019-03-15T02:35:39.042Z,98970.80
2019-03-15T02:38:06.103Z,98973.02
2019-03-15T02:40:33.169Z,98981.30
2019-03-15T02:43:00.237Z,98978.77
2019-03-15T02:45:27.331Z,98975.48
2019-03-15T02:47:54.389Z,98975.23
2019-03-15T02:50:21.448Z,98985.29
2019-03-15T02:52:48.549Z,98976.28
2019-03-15T02:55:15.624Z,98972.44
2019-03-15T02:57:42.669Z,98979.80
2019-03-15T03:00:10.623Z,98981.90
2019-03-15T03:02:37.679Z,98979.22
2019-03-15T03:05:04.818Z,98982.58
2019-03-15T03:07:31.895Z,98974.63
2019-03-15T03:09:59.300Z,98974.61
2019-03-15T03:12:26.414Z,98968.95
2019-03-15T03:14:53.494Z,98972.94
2019-03-15T03:17:20.568Z,98966.87
2019-03-15T03:19:47.610Z,98969.08
2019-03-15T03:22:14.722Z,98973.02
2019-03-15T03:24:41.793Z,98968.68
2019-03-15T03:27:08.845Z,98980.30
2019-03-15T03:29:35.918Z,98975.45
2019-03-15T03:32:03.003Z,98977.11
2019-03-15T03:34:30.061Z,98968.40
2019-03-15T03:36:58.200Z,98968.67
2019-03-15T03:39:25.386Z,98969.37
2019-03-15T03:41:52.452Z,98969.72
2019-03-15T03:44:19.518Z,98964.81
2019-03-15T03:46:46.559Z,98958.20
2019-03-15T03:49:13.627Z,98958.61
2019-03-15T03:51:40.692Z,98963.35
2019-03-15T03:54:07.746Z,98961.06
2019-03-15T03:56:34.803Z,98966.63
2019-03-15T03:59:01.883Z,98969.30
2019-03-15T04:01:29.040Z,98970.68
2019-03-15T04:03:56.104Z,98971.91
2019-03-15T04:06:23.269Z,98974.44
2019-03-15T04:08:50.324Z,98971.75
2019-03-15T04:11:17.387Z,98975.16
2019-03-15T04:13:44.439Z,98973.37
2019-03-15T04:16:11.496Z,98968.91
2019-03-15T04:18:38.558Z,98969.69
2019-03-15T04:21:05.626Z,98965.28
2019-03-15T04:23:32.727Z,98956.53
2019-03-15T04:26:01.183Z,98958.61
2019-03-15T04:28:28.235Z,98961.62
2019-03-15T04:30:55.306Z,98967.22
2019-03-15T04:33:22.362Z,98964.61
2019-03-15T04:35:49.437Z,98955.44
2019-03-15T04:38:16.487Z,98958.84
2019-03-15T04:40:43.560Z,98968.45
2019-03-15T04:43:10.627Z,98964.66
2019-03-15T04:45:37.727Z,98969.00
2019-03-15T04:48:04.784Z,98970.31
2019-03-15T04:50:31.850Z,98965.09
2019-03-15T04:52:58.926Z,98966.77
2019-03-15T04:55:25.979Z,98970.23
2019-03-15T04:57:53.079Z,98973.75
2019-03-15T05:00:20.172Z,98968.92
2019-03-15T05:02:47.281Z,98974.58
2019-03-15T05:05:14.296Z,98970.66
2019-03-15T05:07:41.363Z,98964.52
2019-03-15T05:10:08.540Z,98960.20
2019-03-15T05:12:35.595Z,98960.20
2019-03-15T05:15:02.819Z,98965.83
2019-03-15T05:17:29.881Z,98966.28
2019-03-15T05:19:57.007Z,98963.30
2019-03-15T05:22:24.071Z,98959.44
2019-03-15T05:24:51.131Z,98958.55
2019-03-15T05:27:18.192Z,98950.32
2019-03-15T05:29:45.259Z,98950.23
2019-03-15T05:32:12.318Z,98952.02
2019-03-15T05:34:39.402Z,98959.46
2019-03-15T05:37:06.218Z,98958.22
2019-03-15T05:39:33.295Z,98951.23
2019-03-15T05:42:00.376Z,98949.02
2019-03-15T05:44:27.431Z,98955.91
2019-03-15T05:46:54.598Z,98949.33
2019-03-15T05:49:21.671Z,98946.29
2019-03-15T05:51:48.726Z,98947.54
2019-03-15T05:54:15.786Z,98940.09
2019-03-15T05:56:42.869Z,98933.93
2019-03-15T05:59:09.963Z,98946.52
2019-03-15T06:01:37.036Z,98945.55
2019-03-15T06:04:04.217Z,98944.21
2019-03-15T06:06:31.296Z,98944.16
2019-03-15T06:08:58.355Z,98945.38
2019-03-15T06:11:25.426Z,98937.90
2019-03-15T06:13:52.521Z,98947.45
2019-03-15T06:16:19.586Z,98954.04
2019-03-15T06:18:46.710Z,98946.68
2019-03-15T06:21:13.796Z,98947.20
2019-03-15T06:23:40.862Z,98945.44
2019-03-15T06:26:07.942Z,98941.84
2019-03-15T06:28:35.007Z,98943.06
2019-03-15T06:31:02.075Z,98942.59
2019-03-15T06:33:29.149Z,98939.52
2019-03-15T06:35:56.246Z,98936.05
2019-03-15T06:38:23.307Z,98936.88
2019-03-15T06:40:50.380Z,98929.42
2019-03-15T06:43:17.449Z,98933.26
2019-03-15T06:45:44.562Z,98936.18
2019-03-15T06:48:11.615Z,98936.48
2019-03-15T06:50:38.684Z,98933.87
2019-03-15T06:53:05.747Z,98930.77
2019-03-15T06:55:32.822Z,98925.45
2019-03-15T06:58:00.025Z,98929.77
2019-03-15T07:00:27.150Z,98938.02
2019-03-15T07:02:54.268Z,98934.09
2019-03-15T07:05:21.331Z,98934.45
2019-03-15T07:07:48.488Z,98934.81
2019-03-15T07:10:15.549Z,98941.27
2019-03-15T07:12:42.616Z,98935.03
2019-03-15T07:15:10.328Z,98940.11
2019-03-15T07:17:37.394Z,98944.85
2019-03-15T07:20:05.731Z,98938.31
2019-03-15T07:22:32.799Z,98938.25
2019-03-15T07:24:59.878Z,98936.06
2019-03-15T07:27:26.941Z,98937.24
2019-03-15T07:29:54.028Z,98935.05
2019-03-15T07:32:21.116Z,98932.47
2019-03-15T07:34:48.200Z,98931.52
2019-03-15T07:37:15.301Z,98923.12
2019-03-15T07:39:42.383Z,98922.57
2019-03-15T07:42:09.451Z,98921.17
2019-03-15T07:44:36.524Z,98924.91
2019-03-15T07:47:03.648Z,98928.27
2019-03-15T07:49:30.695Z,98925.10
2019-03-15T07:51:57.764Z,98922.32
2019-03-15T07:54:37.046Z,98918.66
2019-03-15T07:56:53.806Z,98921.64
2019-03-15T07:59:20.999Z,98917.61
2019-03-15T08:01:48.081Z,98911.39
2019-03-15T08:04:17.455Z,98911.25
2019-03-15T08:06:47.122Z,98908.08
2019-03-15T08:09:14.193Z,98896.59
2019-03-15T08:11:41.275Z,98898.11
2019-03-15T08:14:08.435Z,98899.29
2019-03-15T08:16:35.526Z,98904.42
2019-03-15T08:19:05.042Z,98898.16
2019-03-15T08:21:31.608Z,98899.37
2019-03-15T08:23:58.701Z,98899.30
2019-03-15T08:26:25.750Z,98894.80
2019-03-15T08:28:52.840Z,98889.46
2019-03-15T08:31:23.100Z,98885.03
2019-03-15T08:33:48.856Z,98887.09
2019-03-15T08:36:15.956Z,98880.89
2019-03-15T08:38:47.721Z,98890.38
2019-03-15T08:41:12.087Z,98881.73
2019-03-15T08:43:39.230Z,98881.95
2019-03-15T08:46:06.298Z,98881.84
2019-03-15T08:48:33.361Z,98880.25
2019-03-15T08:51:02.267Z,98877.80
2019-03-15T08:53:29.302Z,98882.37
2019-03-15T08:55:56.374Z,98881.02
2019-03-15T08:58:23.462Z,98876.20
2019-03-15T09:00:50.555Z,98873.77
2019-03-15T09:03:27.184Z,98874.27
2019-03-15T09:05:46.622Z,98881.06
2019-03-15T09:08:13.854Z,98871.31
2019-03-15T09:10:40.923Z,98878.14
2019-03-15T09:13:07.983Z,98874.63
2019-03-15T09:15:35.051Z,98873.82
2019-03-15T09:18:02.115Z,98865.96
2019-03-15T09:20:30.424Z,98866.20
2019-03-15T09:22:57.760Z,98864.31
2019-03-15T09:25:24.812Z,98864.59
2019-03-15T09:27:51.869Z,98864.48
2019-03-15T09:30:23.523Z,98855.11
2019-03-15T09:32:47.988Z,98853.80
2019-03-15T09:35:15.062Z,98855.23
2019-03-15T09:37:42.296Z,98850.48
2019-03-15T09:40:09.683Z,98852.88
2019-03-15T09:42:36.753Z,98845.05
2019-03-15T09:45:04.216Z,98842.27
2019-03-15T09:47:31.296Z,98850.41
2019-03-15T09:49:58.359Z,98845.86
2019-03-15T09:52:25.436Z,98837.80
2019-03-15T09:54:52.532Z,98839.61
2019-03-15T09:57:19.597Z,98845.08
2019-03-15T09:59:46.674Z,98832.62
2019-03-15T10:02:13.750Z,98835.08
2019-03-15T10:04:40.862Z,98830.36
2019-03-15T10:07:08.022Z,98832.27
2019-03-15T10:09:45.295Z,98827.70
2019-03-15T10:12:04.148Z,98826.23
2019-03-15T10:14:31.207Z,98825.68
2019-03-15T10:16:58.271Z,98824.38
2019-03-15T10:19:25.344Z,98824.29
2019-03-15T10:21:52.415Z,98818.80
2019-03-15T10:24:19.480Z,98820.88
2019-03-15T10:26:46.536Z,98821.88
2019-03-15T10:29:15.671Z,98821.80
2019-03-15T10:31:42.599Z,98821.29
2019-03-15T10:34:09.686Z,98820.48
2019-03-15T10:36:36.734Z,98815.50
2019-03-15T10:39:05.172Z,98806.86
2019-03-15T10:41:32.237Z,98810.71
2019-03-15T10:43:59.321Z,98813.59
2019-03-15T10:46:26.391Z,98803.81
2019-03-15T10:48:53.511Z,98800.59
2019-03-15T10:51:20.566Z,98800.88
2019-03-15T10:53:47.631Z,98803.42
2019-03-15T10:56:14.695Z,98795.29
2019-03-15T10:58:41.759Z,98800.59
2019-03-15T11:01:08.826Z,98791.99
2019-03-15T11:03:35.889Z,98786.82
2019-03-15T11:06:03.168Z,98793.44
2019-03-15T11:08:30.229Z,98786.70
2019-03-15T11:10:57.303Z,98783.95
2019-03-15T11:13:24.407Z,98780.73
2019-03-15T11:15:51.475Z,98779.41
2019-03-15T11:18:18.591Z,98778.88
2019-03-15T11:20:45.653Z,98774.42
2019-03-15T11:23:12.720Z,98770.34
2019-03-15T11:25:39.784Z,98766.55
2019-03-15T11:28:06.852Z,98766.03
2019-03-15T11:30:33.917Z,98764.17
2019-03-15T11:33:00.985Z,98761.55
2019-03-15T11:35:28.045Z,98757.02
2019-03-15T11:37:55.109Z,98759.91
2019-03-15T11:40:22.164Z,98758.00
2019-03-15T11:42:49.222Z,98759.59
2019-03-15T11:45:16.291Z,98755.38
2019-03-15T11:48:02.657Z,98752.23
2019-03-15T11:50:12.362Z,98749.86
2019-03-15T11:52:39.411Z,98746.73
2019-03-15T11:55:07.132Z,98741.52
2019-03-15T11:57:34.191Z,98736.69
2019-03-15T12:00:01.264Z,98739.11
2019-03-15T12:02:28.323Z,98734.78
2019-03-15T12:04:55.379Z,98736.73
2019-03-15T12:07:22.459Z,98729.52
2019-03-15T12:09:49.539Z,98728.39
2019-03-15T12:12:16.621Z,98726.89
2019-03-15T12:14:43.686Z,98718.88
2019-03-15T12:17:10.829Z,98715.70
2019-03-15T12:19:37.905Z,98715.66
2019-03-15T12:22:06.551Z,98712.44
2019-03-15T12:24:33.852Z,98704.42
2019-03-15T12:27:00.956Z,98706.11
2019-03-15T12:29:28.035Z,98701.00
2019-03-15T12:31:55.104Z,98700.03
2019-03-15T12:34:22.201Z,98696.70
2019-03-15T12:36:49.254Z,98692.94
2019-03-15T12:39:16.373Z,98698.14
2019-03-15T12:41:43.462Z,98692.30
2019-03-15T12:44:10.750Z,98688.13
2019-03-15T12:46:37.908Z,98691.47
2019-03-15T12:49:04.967Z,98686.17
2019-03-15T12:51:32.592Z,98679.14
2019-03-15T12:53:59.807Z,98682.09
2019-03-15T12:56:26.868Z,98681.21
2019-03-15T12:58:53.925Z,98676.89
2019-03-15T13:01:20.998Z,98674.73
2019-03-15T13:03:48.141Z,98679.73
2019-03-15T13:06:15.235Z,98677.25
2019-03-15T13:08:42.322Z,98675.94
2019-03-15T13:11:09.400Z,98670.48
2019-03-15T13:13:36.469Z,98669.64
2019-03-15T13:16:03.565Z,98670.44
2019-03-15T13:18:30.631Z,98663.08
2019-03-15T13:20:57.693Z,98658.56
2019-03-15T13:23:24.766Z,98661.73
2019-03-15T13:25:51.860Z,98655.11
2019-03-15T13:28:20.828Z,98653.20
2019-03-15T13:30:47.885Z,98650.58
2019-03-15T13:33:20.413Z,98646.44
2019-03-15T13:35:43.947Z,98649.63
2019-03-15T13:38:11.004Z,98646.17
2019-03-15T13:40:38.066Z,98634.50
2019-03-15T13:43:05.137Z,98635.22
2019-03-15T13:45:32.191Z,98633.33
2019-03-15T13:47:59.270Z,98622.36
2019-03-15T13:50:26.333Z,98616.52
2019-03-15T13:52:53.391Z,98622.23
2019-03-15T13:55:20.457Z,98621.52
2019-03-15T13:57:47.627Z,98619.48
2019-03-15T14:00:15.020Z,98615.81
2019-03-15T14:02:42.096Z,98612.55
2019-03-15T14:05:09.273Z,98607.02
2019-03-15T14:07:36.380Z,98596.48
2019-03-15T14:10:04.198Z,98594.92
2019-03-15T14:12:31.488Z,98589.59
2019-03-15T14:14:58.554Z,98587.69
2019-03-15T14:17:25.614Z,98580.95
2019-03-15T14:19:52.703Z,98581.13
2019-03-15T14:22:19.789Z,98577.91
2019-03-15T14:24:46.825Z,98580.34
2019-03-15T14:27:13.921Z,98577.77
2019-03-15T14:29:40.967Z,98574.30
2019-03-15T14:32:08.052Z,98567.27
2019-03-15T14:34:35.115Z,98568.45
2019-03-15T14:37:02.271Z,98564.00
2019-03-15T14:39:29.297Z,98570.15
2019-03-15T14:41:56.409Z,98564.00
2019-03-15T14:44:23.500Z,98561.52
2019-03-15T14:46:50.526Z,98560.94
2019-03-15T14:49:17.603Z,98550.38
2019-03-15T14:51:44.741Z,98551.30
2019-03-15T14:54:11.819Z,98541.33
2019-03-15T14:56:38.880Z,98541.06
2019-03-15T14:59:05.949Z,98539.54
2019-03-15T15:01:33.044Z,98538.09
2019-03-15T15:04:00.113Z,98531.16
2019-03-15T15:06:27.220Z,98535.94
2019-03-15T15:08:54.335Z,98534.48
2019-03-15T15:11:21.408Z,98536.13
2019-03-15T15:13:48.507Z,98533.28
2019-03-15T15:16:15.568Z,98534.08
2019-03-15T15:18:42.625Z,98526.12
2019-03-15T15:21:09.715Z,98520.03
2019-03-15T15:23:36.771Z,98519.55
2019-03-15T15:26:03.993Z,98513.83
2019-03-15T15:28:31.065Z,98513.70
2019-03-15T15:30:58.133Z,98517.55
2019-03-15T15:33:25.211Z,98501.56
2019-03-15T15:35:52.308Z,98502.02
2019-03-15T15:38:19.409Z,98506.56
2019-03-15T15:40:46.483Z,98497.84
2019-03-15T15:43:13.543Z,98496.83
2019-03-15T15:45:40.636Z,98496.83
2019-03-15T15:48:07.715Z,98501.07
2019-03-15T15:50:34.771Z,98497.66
2019-03-15T15:53:01.831Z,98491.02
2019-03-15T15:55:28.907Z,98494.09
2019-03-15T15:57:55.980Z,98495.69
2019-03-15T16:00:23.065Z,98491.20
2019-03-15T16:02:50.140Z,98486.20
2019-03-15T16:05:17.265Z,98486.06
2019-03-15T16:07:44.332Z,98482.08
2019-03-15T16:10:11.414Z,98477.13
2019-03-15T16:12:38.576Z,98472.67
2019-03-15T16:15:06.234Z,98472.67
2019-03-15T16:17:33.295Z,98462.17
2019-03-15T16:20:00.438Z,98463.11
2019-03-15T16:22:27.539Z,98464.47
2019-03-15T16:24:54.724Z,98464.00
2019-03-15T16:27:21.786Z,98461.52
2019-03-15T16:29:48.900Z,98462.07
2019-03-15T16:32:16.005Z,98458.98
2019-03-15T16:34:43.048Z,98454.96
2019-03-15T16:37:10.125Z,98447.64
2019-03-15T16:39:37.183Z,98450.27
2019-03-15T16:42:04.240Z,98447.27
2019-03-15T16:44:31.383Z,98442.02
2019-03-15T16:46:58.449Z,98444.69
2019-03-15T16:49:25.515Z,98443.00
2019-03-15T16:51:52.587Z,98438.22
2019-03-15T16:54:19.647Z,98440.38
2019-03-15T16:56:46.754Z,98432.98
2019-03-15T16:59:13.832Z,98440.84
2019-03-15T17:01:40.879Z,98429.94
2019-03-15T17:04:07.941Z,98425.25
2019-03-15T17:06:35.011Z,98428.25
2019-03-15T17:09:02.094Z,98422.30
2019-03-15T17:11:29.179Z,98421.50
2019-03-15T17:13:56.230Z,98417.14
2019-03-15T17:16:23.290Z,98415.97
2019-03-15T17:18:50.360Z,98409.00
2019-03-15T17:21:17.428Z,98407.25
2019-03-15T17:23:44.519Z,98409.00
2019-03-15T17:26:11.595Z,98405.81
2019-03-15T17:28:38.669Z,98393.91
2019-03-15T17:31:10.231Z,98393.06
2019-03-15T17:33:34.710Z,98393.14
2019-03-15T17:36:01.769Z,98393.34
2019-03-15T17:38:28.835Z,98388.27
2019-03-15T17:40:55.899Z,98385.78
2019-03-15T17:43:22.952Z,98388.78
2019-03-15T17:45:50.120Z,98381.30
2019-03-15T17:48:17.198Z,98379.09
2019-03-15T17:50:44.287Z,98380.40
2019-03-15T17:53:11.463Z,98376.90
2019-03-15T17:55:38.530Z,98380.83
2019-03-15T17:58:05.604Z,98375.67
2019-03-15T18:00:36.257Z,98369.12
2019-03-15T18:03:03.888Z,98364.34
2019-03-15T18:05:30.947Z,98368.41
2019-03-15T18:07:58.011Z,98364.02
2019-03-15T18:10:25.090Z,98364.09
2019-03-15T18:12:52.172Z,98368.47
2019-03-15T18:15:19.263Z,98362.92
2019-03-15T18:17:46.345Z,98359.00
2019-03-15T18:20:13.427Z,98356.28
2019-03-15T18:22:40.496Z,98353.20
2019-03-15T18:25:07.700Z,98354.13
2019-03-15T18:27:34.793Z,98352.82
2019-03-15T18:30:01.915Z,98347.25
2019-03-15T18:32:28.959Z,98354.65
2019-03-15T18:34:56.078Z,98344.63
2019-03-15T18:37:23.151Z,98346.35
2019-03-15T18:39:50.402Z,98341.95
2019-03-15T18:42:17.427Z,98342.42
2019-03-15T18:44:44.497Z,98344.11
2019-03-15T18:47:11.634Z,98338.92
2019-03-15T18:49:38.744Z,98335.87
2019-03-15T18:52:05.817Z,98338.08
2019-03-15T18:54:32.886Z,98337.23
2019-03-15T18:56:59.939Z,98336.39
2019-03-15T18:59:39.190Z,98332.45
2019-03-15T19:01:55.975Z,98325.38
2019-03-15T19:04:23.060Z,98328.91
2019-03-15T19:06:50.126Z,98330.63
2019-03-15T19:09:17.222Z,98330.63
2019-03-15T19:11:44.303Z,98324.91
2019-03-15T19:14:11.400Z,98323.14
2019-03-15T19:16:38.461Z,98324.45
2019-03-15T19:19:05.543Z,98328.38
2019-03-15T19:21:32.637Z,98324.08
2019-03-15T19:23:59.752Z,98326.70
2019-03-15T19:26:29.027Z,98325.77
2019-03-15T19:28:55.845Z,98320.52
2019-03-15T19:31:22.940Z,98319.73
2019-03-15T19:33:50.018Z,98319.73
2019-03-15T19:36:17.136Z,98316.73
2019-03-15T19:38:44.227Z,98318.13
2019-03-15T19:41:11.300Z,98320.66
2019-03-15T19:43:38.404Z,98317.11
2019-03-15T19:46:05.491Z,98321.83
2019-03-15T19:48:32.586Z,98310.88
2019-03-15T19:50:59.664Z,98312.98
2019-03-15T19:53:26.726Z,98305.96
2019-03-15T19:55:53.804Z,98303.72
2019-03-15T19:58:20.886Z,98307.19
2019-03-15T20:00:47.959Z,98303.72
2019-03-15T20:03:15.024Z,98304.23
2019-03-15T20:05:42.112Z,98310.88
2019-03-15T20:08:09.253Z,98307.03
2019-03-15T20:10:36.380Z,98300.02
2019-03-15T20:13:03.459Z,98304.33
2019-03-15T20:15:30.591Z,98297.39
2019-03-15T20:17:57.654Z,98301.70
2019-03-15T20:20:24.744Z,98299.08
2019-03-15T20:22:51.889Z,98299.93
2019-03-15T20:25:18.954Z,98296.93
2019-03-15T20:27:46.036Z,98294.31
2019-03-15T20:30:21.154Z,98297.86
2019-03-15T20:32:43.423Z,98296.55
2019-03-15T20:35:10.501Z,98295.77
2019-03-15T20:37:37.646Z,98294.07
2019-03-15T20:40:04.904Z,98293.28
2019-03-15T20:42:31.983Z,98297.16
2019-03-15T20:44:59.066Z,98294.97
2019-03-15T20:47:26.146Z,98289.34
2019-03-15T20:49:53.255Z,98293.37
2019-03-15T20:52:20.307Z,98294.27
2019-03-15T20:54:47.380Z,98290.80
2019-03-15T20:57:14.490Z,98286.95
2019-03-15T20:59:41.584Z,98298.75
2019-03-15T21:02:08.656Z,98304.83
2019-03-15T21:04:35.741Z,98297.91
2019-03-15T21:07:02.824Z,98298.28
2019-03-15T21:09:29.902Z,98301.42
2019-03-15T21:11:56.973Z,98301.88
2019-03-15T21:14:24.037Z,98300.66
2019-03-15T21:16:51.116Z,98301.56
2019-03-15T21:19:18.210Z,98299.48
2019-03-15T21:21:45.297Z,98298.23
2019-03-15T21:24:12.375Z,98297.47
2019-03-15T21:26:39.479Z,98301.45
2019-03-15T21:29:06.540Z,98306.32
2019-03-15T21:31:33.599Z,98298.12
2019-03-15T21:34:00.680Z,98298.59
2019-03-15T21:36:27.746Z,98300.37
2019-03-15T21:38:54.816Z,98303.04
2019-03-15T21:41:21.896Z,98297.28
2019-03-15T21:43:48.988Z,98299.53
2019-03-15T21:46:16.063Z,98290.36
2019-03-15T21:48:43.136Z,98292.13
2019-03-15T21:51:10.198Z,98293.11
2019-03-15T21:53:37.254Z,98288.53
2019-03-15T21:56:04.333Z,98294.67
2019-03-15T21:58:31.403Z,98296.39
2019-03-15T22:01:02.723Z,98290.33
2019-03-15T22:03:27.455Z,98294.07
2019-03-15T22:05:54.555Z,98296.31
2019-03-15T22:08:21.640Z,98296.32
2019-03-15T22:10:48.719Z,98297.62
2019-03-15T22:13:15.781Z,98295.73
2019-03-15T22:15:42.849Z,98297.67
2019-03-15T22:18:09.908Z,98296.91
2019-03-15T22:20:37.076Z,98295.64
2019-03-15T22:23:04.152Z,98299.11
2019-03-15T22:25:31.246Z,98296.44
2019-03-15T22:27:58.317Z,98298.67
2019-03-15T22:30:25.389Z,98296.48
2019-03-15T22:32:52.472Z,98290.37
2019-03-15T22:35:19.559Z,98299.31
2019-03-15T22:37:46.629Z,98294.80
2019-03-15T22:40:13.806Z,98298.34
2019-03-15T22:42:40.956Z,98298.34
2019-03-15T22:45:08.086Z,98301.34
2019-03-15T22:47:35.152Z,98303.58
2019-03-15T22:50:02.458Z,98304.89
2019-03-15T22:52:29.552Z,98300.50
2019-03-15T22:54:57.062Z,98304.81
2019-03-15T22:57:24.102Z,98303.20
2019-03-15T22:59:53.103Z,98301.81
2019-03-15T23:02:26.189Z,98309.58
2019-03-15T23:04:53.268Z,98300.04
2019-03-15T23:07:20.421Z,98304.81
2019-03-15T23:09:47.500Z,98302.61
2019-03-15T23:12:16.368Z,98313.07
2019-03-15T23:14:43.425Z,98312.06
2019-03-15T23:17:10.563Z,98316.33
2019-03-15T23:19:37.700Z,98319.87
2019-03-15T23:22:04.906Z,98316.20
2019-03-15T23:24:31.972Z,98319.98
2019-03-15T23:26:59.052Z,98325.13
2019-03-15T23:29:26.205Z,98329.38
2019-03-15T23:31:53.299Z,98336.11
2019-03-15T23:34:20.398Z,98334.84
2019-03-15T23:36:47.499Z,98334.27
2019-03-15T23:39:14.567Z,98341.98
2019-03-15T23:41:41.780Z,98340.56
2019-03-15T23:44:08.883Z,98336.77
2019-03-15T23:46:42.890Z,98341.22
2019-03-15T23:49:10.019Z,98341.50
2019-03-15T23:51:37.104Z,98342.23
2019-03-15T23:54:04.198Z,98347.83
2019-03-15T23:56:31.536Z,98349.37
2019-03-15T23:58:58.599Z,98349.09
